Fecha, hora, temperatura, viento dirección y velocidad, humedad y presión.

  • 19-03-2019 23:00:00 | 6.00°C | Nordeste |5.00 km/h | 72.00% | 942.50 hPa
  • 19-03-2019 22:00:00 | 6.70°C | Nordeste |8.00 km/h | 69.00% | 942.10 hPa
  • 19-03-2019 21:00:00 | 7.90°C | Este |9.00 km/h | 63.00% | 941.60 hPa
  • 19-03-2019 20:00:00 | 9.00°C | Nordeste |7.00 km/h | 58.00% | 940.90 hPa
  • 19-03-2019 19:00:00 | 10.40°C | Nordeste |10.00 km/h | 51.00% | 940.40 hPa
  • 19-03-2019 18:00:00 | 11.70°C | Nordeste |7.00 km/h | 46.00% | 939.80 hPa
  • 19-03-2019 17:00:00 | 12.80°C | Nordeste |7.00 km/h | 42.00% | 939.80 hPa
  • 19-03-2019 16:00:00 | 13.50°C | Norte |8.00 km/h | 42.00% | 939.70 hPa
  • 19-03-2019 15:00:00 | 12.60°C | Nordeste |9.00 km/h | 46.00% | 939.80 hPa
  • 19-03-2019 14:00:00 | 12.70°C | Nordeste |8.00 km/h | 44.00% | 940.20 hPa
  • 19-03-2019 13:00:00 | 11.80°C | Nordeste |6.00 km/h | 47.00% | 940.50 hPa
  • 19-03-2019 12:00:00 | 10.70°C | Norte |6.00 km/h | 53.00% | 940.80 hPa
  • 19-03-2019 11:00:00 | 8.90°C | Norte |4.00 km/h | 57.00% | 941.00 hPa
  • 19-03-2019 10:00:00 | 6.90°C | Noroeste |6.00 km/h | 66.00% | 940.80 hPa
  • 19-03-2019 09:00:00 | 5.10°C | Norte |2.00 km/h | 75.00% | 940.90 hPa
  • 19-03-2019 08:00:00 | 2.60°C | Oeste |4.00 km/h | 83.00% | 940.50 hPa
  • 19-03-2019 07:00:00 | 3.00°C | Oeste |4.00 km/h | 80.00% | 940.20 hPa
  • 19-03-2019 06:00:00 | 3.60°C | Norte |2.00 km/h | 78.00% | 940.00 hPa
  • 19-03-2019 05:00:00 | 4.20°C | Noroeste |3.00 km/h | 75.00% | 940.10 hPa
  • 19-03-2019 04:00:00 | 4.20°C | Noroeste |4.00 km/h | 74.00% | 940.00 hPa
  • 19-03-2019 03:00:00 | 4.50°C | Noroeste |2.00 km/h | 70.00% | 940.30 hPa
  • 19-03-2019 02:00:00 | 5.20°C | Nordeste |4.00 km/h | 66.00% | 940.40 hPa
  • 19-03-2019 01:00:00 | 5.40°C | Nordeste |8.00 km/h | 64.00% | 940.70 hPa
  • 19-03-2019 00:00:00 | 5.60°C | Nordeste |6.00 km/h | 62.00% | 940.70 hPa
    • diseño web asturias Información sobre el estado de las mareas, altura de la marejada, temperatura del agua y otros datos de Gijón en Asturias.

      Surf Gijón